TimeCST,TemperatureF,Dew PointF,Humidity,Sea Level PressureIn,VisibilityMPH,Wind Direction,Wind SpeedMPH,Gust SpeedMPH,PrecipitationIn,Events,Conditions,WindDirDegrees,DateUTC
12:53 AM,19.0,12.0,74,30.23,10.0,Calm,Calm,-,N/A,,Clear,0,2012-12-12 06:53:00
1:53 AM,19.9,10.9,68,30.23,10.0,Calm,Calm,-,N/A,,Clear,0,2012-12-12 07:53:00
2:53 AM,18.0,10.9,74,30.23,10.0,Calm,Calm,-,N/A,,Clear,0,2012-12-12 08:53:00
3:53 AM,17.1,10.0,74,30.24,10.0,Calm,Calm,-,N/A,,Clear,0,2012-12-12 09:53:00
4:53 AM,17.1,10.0,74,30.23,10.0,Calm,Calm,-,N/A,,Clear,0,2012-12-12 10:53:00
5:53 AM,15.1,9.0,77,30.24,10.0,Calm,Calm,-,N/A,,Clear,0,2012-12-12 11:53:00
6:53 AM,15.1,10.0,80,30.25,10.0,Calm,Calm,-,N/A,,Clear,0,2012-12-12 12:53:00
7:53 AM,15.1,8.1,74,30.28,10.0,Calm,Calm,-,N/A,,Clear,0,2012-12-12 13:53:00
8:53 AM,27.0,14.0,58,30.28,10.0,Calm,Calm,-,N/A,,Clear,0,2012-12-12 14:53:00
9:53 AM,35.1,15.1,44,30.29,10.0,Calm,Calm,-,N/A,,Clear,0,2012-12-12 15:53:00
10:53 AM,44.1,14.0,30,30.27,10.0,South,13.8,-,N/A,,Clear,190,2012-12-12 16:53:00
11:53 AM,50.0,18.0,28,30.23,10.0,South,16.1,24.2,N/A,,Clear,190,2012-12-12 17:53:00
12:53 PM,53.1,19.0,26,30.19,10.0,South,12.7,21.9,N/A,,Clear,180,2012-12-12 18:53:00
1:53 PM,55.9,19.9,25,30.15,10.0,South,18.4,24.2,N/A,,Clear,170,2012-12-12 19:53:00
2:53 PM,57.0,19.0,23,30.13,10.0,South,17.3,-,N/A,,Clear,170,2012-12-12 20:53:00
3:53 PM,57.9,18.0,21,30.11,10.0,SSE,16.1,24.2,N/A,,Clear,150,2012-12-12 21:53:00
4:53 PM,55.9,18.0,23,30.11,10.0,SSE,12.7,-,N/A,,Clear,150,2012-12-12 22:53:00
5:53 PM,50.0,18.0,28,30.12,10.0,SSE,8.1,-,N/A,,Clear,150,2012-12-12 23:53:00
6:53 PM,48.0,18.0,30,30.15,10.0,SE,11.5,-,N/A,,Clear,140,2012-12-13 00:53:00
7:53 PM,46.0,19.0,34,30.15,10.0,SE,12.7,-,N/A,,Clear,140,2012-12-13 01:53:00
8:53 PM,45.0,19.0,36,30.16,10.0,SSE,13.8,-,N/A,,Clear,150,2012-12-13 02:53:00
9:53 PM,44.1,19.9,38,30.16,10.0,SSE,15.0,-,N/A,,Clear,150,2012-12-13 03:53:00
10:53 PM,43.0,19.9,40,30.17,10.0,SSE,12.7,-,N/A,,Clear,150,2012-12-13 04:53:00
11:53 PM,39.9,21.0,47,30.17,10.0,SSE,9.2,-,N/A,,Clear,150,2012-12-13 05:53:00